createdAt,value
2018-12-08T00:02:01.918Z,6.93
2018-12-08T00:04:31.088Z,6.94
2018-12-08T00:07:00.777Z,6.92
2018-12-08T00:09:29.910Z,6.94
2018-12-08T00:11:59.120Z,6.90
2018-12-08T00:14:28.788Z,6.88
2018-12-08T00:16:57.900Z,6.93
2018-12-08T00:19:27.204Z,6.91
2018-12-08T00:21:56.280Z,6.87
2018-12-08T00:24:25.657Z,6.87
2018-12-08T00:26:54.821Z,6.82
2018-12-08T00:29:23.968Z,6.89
2018-12-08T00:31:53.112Z,6.81
2018-12-08T00:34:22.537Z,6.82
2018-12-08T00:36:51.976Z,6.84
2018-12-08T00:39:21.581Z,6.74
2018-12-08T00:41:50.829Z,6.62
2018-12-08T00:44:20.745Z,6.40
2018-12-08T00:46:49.899Z,6.36
2018-12-08T00:49:19.160Z,6.35
2018-12-08T00:51:48.246Z,6.32
2018-12-08T00:54:18.402Z,6.48
2018-12-08T00:56:47.795Z,6.56
2018-12-08T00:59:17.457Z,6.53
2018-12-08T01:01:46.724Z,6.45
2018-12-08T01:04:15.875Z,6.43
2018-12-08T01:06:44.968Z,6.33
2018-12-08T01:09:14.377Z,6.34
2018-12-08T01:11:43.629Z,6.38
2018-12-08T01:14:13.034Z,6.26
2018-12-08T01:16:42.237Z,6.25
2018-12-08T01:19:11.345Z,6.19
2018-12-08T01:21:41.180Z,6.14
2018-12-08T01:24:10.285Z,6.19
2018-12-08T01:26:40.116Z,6.25
2018-12-08T01:29:09.508Z,6.34
2018-12-08T01:31:39.108Z,6.28
2018-12-08T01:34:08.376Z,6.18
2018-12-08T01:36:37.547Z,6.09
2018-12-08T01:39:08.374Z,6.02
2018-12-08T01:41:37.503Z,5.93
2018-12-08T01:44:07.055Z,5.81
2018-12-08T01:46:36.211Z,5.57
2018-12-08T01:49:05.408Z,5.34
2018-12-08T01:51:34.620Z,5.07
2018-12-08T01:54:04.269Z,4.93
2018-12-08T01:56:33.507Z,4.93
2018-12-08T01:59:02.783Z,4.92
2018-12-08T02:01:32.217Z,4.79
2018-12-08T02:04:01.505Z,4.66
2018-12-08T02:06:31.121Z,4.54
2018-12-08T02:09:00.519Z,4.45
2018-12-08T02:11:29.676Z,4.30
2018-12-08T02:13:59.390Z,4.17
2018-12-08T02:16:28.487Z,3.96
2018-12-08T02:18:57.627Z,3.92
2018-12-08T02:21:26.797Z,3.78
2018-12-08T02:23:56.006Z,3.79
2018-12-08T02:26:27.503Z,3.94
2018-12-08T02:28:56.580Z,3.96
2018-12-08T02:31:25.752Z,4.12
2018-12-08T02:33:55.083Z,4.21
2018-12-08T02:36:24.153Z,4.17
2018-12-08T02:38:53.309Z,4.15
2018-12-08T02:41:22.453Z,4.24
2018-12-08T02:43:51.640Z,4.22
2018-12-08T02:46:21.340Z,4.15
2018-12-08T02:48:50.420Z,4.16
2018-12-08T02:51:19.892Z,4.08
2018-12-08T02:53:49.114Z,4.00
2018-12-08T02:56:18.795Z,3.84
2018-12-08T02:58:47.864Z,3.81
2018-12-08T03:01:17.206Z,3.74
2018-12-08T03:03:46.371Z,3.75
2018-12-08T03:06:15.467Z,3.88
2018-12-08T03:08:44.656Z,3.97
2018-12-08T03:11:15.247Z,3.91
2018-12-08T03:13:44.389Z,3.88
2018-12-08T03:16:13.502Z,4.07
2018-12-08T03:18:42.608Z,4.30
2018-12-08T03:21:11.713Z,4.35
2018-12-08T03:23:40.926Z,4.23
2018-12-08T03:26:10.143Z,4.10
2018-12-08T03:28:39.577Z,3.91
2018-12-08T03:31:08.837Z,3.90
2018-12-08T03:33:38.003Z,3.93
2018-12-08T03:36:07.909Z,4.01
2018-12-08T03:38:37.180Z,4.15
2018-12-08T03:41:06.721Z,4.14
2018-12-08T03:43:37.609Z,4.25
2018-12-08T03:46:06.723Z,4.20
2018-12-08T03:48:35.876Z,4.15
2018-12-08T03:51:06.632Z,4.09
2018-12-08T03:53:36.831Z,4.19
2018-12-08T03:56:06.115Z,4.19
2018-12-08T03:58:35.261Z,4.20
2018-12-08T04:01:04.549Z,4.20
2018-12-08T04:03:34.628Z,4.37
2018-12-08T04:06:04.397Z,4.45
2018-12-08T04:08:33.628Z,4.46
2018-12-08T04:11:02.822Z,4.51
2018-12-08T04:13:32.488Z,4.66
2018-12-08T04:16:01.629Z,4.77
2018-12-08T04:18:30.850Z,4.61
2018-12-08T04:21:00.120Z,4.63
2018-12-08T04:23:29.792Z,4.67
2018-12-08T04:25:59.644Z,4.85
2018-12-08T04:28:28.762Z,4.92
2018-12-08T04:30:57.907Z,5.06
2018-12-08T04:33:27.051Z,5.16
2018-12-08T04:35:56.186Z,5.26
2018-12-08T04:38:25.396Z,5.27
2018-12-08T04:40:54.537Z,5.37
2018-12-08T04:43:23.655Z,5.44
2018-12-08T04:45:53.164Z,5.36
2018-12-08T04:48:22.285Z,5.38
2018-12-08T04:50:51.416Z,5.32
2018-12-08T04:53:20.631Z,5.41
2018-12-08T04:55:50.016Z,5.35
2018-12-08T04:58:19.250Z,5.27
2018-12-08T05:00:48.680Z,5.27
2018-12-08T05:03:18.469Z,5.35
2018-12-08T05:05:47.599Z,5.44
2018-12-08T05:08:16.855Z,5.32
2018-12-08T05:10:46.692Z,5.24
2018-12-08T05:13:16.573Z,5.01
2018-12-08T05:15:45.704Z,5.17
2018-12-08T05:18:14.865Z,5.08
2018-12-08T05:20:44.078Z,5.19
2018-12-08T05:23:13.667Z,5.35
2018-12-08T05:25:42.939Z,5.42
2018-12-08T05:28:12.220Z,5.28
2018-12-08T05:30:41.845Z,5.20
2018-12-08T05:33:10.984Z,5.15
2018-12-08T05:35:40.550Z,4.96
2018-12-08T05:38:09.915Z,5.00
2018-12-08T05:40:39.059Z,4.86
2018-12-08T05:43:08.354Z,4.87
2018-12-08T05:45:37.916Z,4.77
2018-12-08T05:48:07.530Z,4.67
2018-12-08T05:50:36.796Z,4.72
2018-12-08T05:53:06.272Z,4.64
2018-12-08T05:55:36.015Z,4.53
2018-12-08T05:58:05.213Z,4.59
2018-12-08T06:00:35.075Z,4.56
2018-12-08T06:03:04.199Z,4.66
2018-12-08T06:05:33.344Z,4.56
2018-12-08T06:08:02.464Z,4.67
2018-12-08T06:10:31.680Z,4.60
2018-12-08T06:13:01.351Z,4.67
2018-12-08T06:15:30.500Z,4.71
2018-12-08T06:17:59.785Z,4.63
2018-12-08T06:20:28.993Z,4.59
2018-12-08T06:22:58.533Z,4.54
2018-12-08T06:25:33.113Z,4.35
2018-12-08T06:28:25.289Z,4.46
2018-12-08T06:30:54.999Z,4.57
2018-12-08T06:33:24.148Z,4.85
2018-12-08T06:35:53.520Z,4.82
2018-12-08T06:38:22.682Z,4.69
2018-12-08T06:40:51.872Z,4.70
2018-12-08T06:43:21.892Z,4.74
2018-12-08T06:45:51.081Z,4.84
2018-12-08T06:48:20.296Z,4.84
2018-12-08T06:50:49.523Z,4.96
2018-12-08T06:53:18.657Z,4.81
2018-12-08T06:55:47.907Z,4.69
2018-12-08T06:58:17.100Z,4.57
2018-12-08T07:00:47.868Z,4.53
2018-12-08T07:03:17.032Z,4.59
2018-12-08T07:05:52.764Z,4.53
2018-12-08T07:08:22.479Z,4.56
2018-12-08T07:10:52.477Z,4.56
2018-12-08T07:13:21.619Z,4.55
2018-12-08T07:15:50.755Z,4.59
2018-12-08T07:18:19.875Z,4.58
2018-12-08T07:20:49.076Z,4.67
2018-12-08T07:23:18.382Z,4.72
2018-12-08T07:25:47.501Z,4.84
2018-12-08T07:28:16.860Z,4.82
2018-12-08T07:30:46.057Z,4.85
2018-12-08T07:33:15.175Z,4.95
2018-12-08T07:35:44.617Z,5.05
2018-12-08T07:38:13.791Z,5.05
2018-12-08T07:40:43.108Z,5.14
2018-12-08T07:43:12.304Z,5.22
2018-12-08T07:45:42.056Z,5.36
2018-12-08T07:48:11.284Z,5.40
2018-12-08T07:50:40.428Z,5.51
2018-12-08T07:53:09.587Z,5.52
2018-12-08T07:55:38.727Z,5.59
2018-12-08T07:58:08.564Z,5.60
2018-12-08T08:00:37.917Z,5.73
2018-12-08T08:03:07.237Z,5.63
2018-12-08T08:05:36.613Z,5.75
2018-12-08T08:08:05.763Z,5.76
2018-12-08T08:10:34.870Z,5.86
2018-12-08T08:13:03.999Z,6.08
2018-12-08T08:15:33.241Z,6.04
2018-12-08T08:18:02.531Z,5.98
2018-12-08T08:20:31.694Z,5.81
2018-12-08T08:23:00.948Z,5.82
2018-12-08T08:25:30.069Z,5.94
2018-12-08T08:27:59.205Z,6.11
2018-12-08T08:30:28.392Z,6.30
2018-12-08T08:32:57.540Z,6.36
2018-12-08T08:35:26.744Z,6.13
2018-12-08T08:37:55.883Z,6.28
2018-12-08T08:40:25.020Z,6.62
2018-12-08T08:42:54.168Z,6.57
2018-12-08T08:45:23.857Z,6.63
2018-12-08T08:47:52.983Z,6.78
2018-12-08T08:50:22.700Z,6.88
2018-12-08T08:52:51.836Z,6.87
2018-12-08T08:55:20.970Z,7.02
2018-12-08T08:57:50.745Z,6.98
2018-12-08T09:00:19.932Z,6.91
2018-12-08T09:02:49.096Z,7.04
2018-12-08T09:05:18.221Z,7.06
2018-12-08T09:07:47.383Z,7.30
2018-12-08T09:10:16.632Z,7.35
2018-12-08T09:12:45.841Z,7.24
2018-12-08T09:15:15.014Z,7.14
2018-12-08T09:17:44.375Z,7.20
2018-12-08T09:20:13.693Z,7.14
2018-12-08T09:22:43.487Z,7.33
2018-12-08T09:25:12.886Z,7.21
2018-12-08T09:27:44.319Z,7.24
2018-12-08T09:30:13.804Z,7.27
2018-12-08T09:32:43.060Z,7.56
2018-12-08T09:35:12.249Z,7.76
2018-12-08T09:37:43.023Z,7.88
2018-12-08T09:40:12.146Z,7.66
2018-12-08T09:42:41.459Z,7.57
2018-12-08T09:45:10.844Z,7.78
2018-12-08T09:47:40.003Z,7.54
2018-12-08T09:50:09.336Z,7.47
2018-12-08T09:52:39.200Z,7.28
2018-12-08T09:55:08.484Z,7.45
2018-12-08T09:57:38.100Z,7.55
2018-12-08T10:00:08.128Z,7.80
2018-12-08T10:02:38.100Z,7.89
2018-12-08T10:05:07.924Z,8.13
2018-12-08T10:07:37.061Z,7.81
2018-12-08T10:10:07.790Z,7.51
2018-12-08T10:12:36.912Z,7.60
2018-12-08T10:15:06.704Z,7.75
2018-12-08T10:17:36.147Z,7.83
2018-12-08T10:20:06.638Z,7.45
2018-12-08T10:22:35.856Z,7.44
2018-12-08T10:25:06.368Z,7.33
2018-12-08T10:27:35.593Z,7.58
2018-12-08T10:30:06.189Z,7.62
2018-12-08T10:32:35.320Z,7.80
2018-12-08T10:35:10.182Z,8.21
2018-12-08T10:37:40.416Z,8.40
2018-12-08T10:40:10.913Z,8.53
2018-12-08T10:42:40.040Z,8.18
2018-12-08T10:45:10.653Z,8.02
2018-12-08T10:47:39.796Z,7.95
2018-12-08T10:50:11.939Z,7.76
2018-12-08T10:52:41.160Z,7.93
2018-12-08T10:55:10.422Z,7.88
2018-12-08T10:57:39.576Z,8.09
2018-12-08T11:00:13.795Z,7.88
2018-12-08T11:05:33.771Z,7.63
2018-12-08T11:08:02.898Z,7.89
2018-12-08T11:10:32.099Z,7.63
2018-12-08T11:13:01.231Z,7.59
2018-12-08T11:15:30.412Z,7.38
2018-12-08T11:17:59.571Z,7.45
2018-12-08T11:20:28.806Z,7.99
2018-12-08T11:22:57.912Z,8.38
2018-12-08T11:25:27.019Z,8.83
2018-12-08T11:27:56.154Z,9.56
2018-12-08T11:30:27.046Z,9.36
2018-12-08T11:32:56.358Z,9.09
2018-12-08T11:35:25.476Z,9.22
2018-12-08T11:37:55.720Z,8.62
2018-12-08T11:40:24.855Z,8.63
2018-12-08T11:42:53.991Z,8.37
2018-12-08T11:45:23.353Z,8.46
2018-12-08T11:47:52.675Z,8.34
2018-12-08T11:50:21.880Z,8.49
2018-12-08T11:52:51.032Z,8.53
2018-12-08T11:55:20.249Z,8.48
2018-12-08T11:57:49.441Z,8.74
2018-12-08T12:00:18.719Z,8.59
2018-12-08T12:02:48.184Z,8.45
2018-12-08T12:05:17.699Z,9.07
2018-12-08T12:07:46.909Z,8.89
2018-12-08T12:10:22.209Z,8.56
2018-12-08T12:12:54.629Z,8.76
2018-12-08T12:15:23.925Z,8.88
2018-12-08T12:17:53.056Z,8.32
2018-12-08T12:20:22.265Z,8.55
2018-12-08T12:22:51.395Z,8.41
2018-12-08T12:25:27.471Z,8.34
2018-12-08T12:27:57.447Z,8.29
2018-12-08T12:30:26.764Z,8.06
2018-12-08T12:32:55.888Z,8.09
2018-12-08T12:35:25.499Z,8.13
2018-12-08T12:37:54.740Z,8.02
2018-12-08T12:40:23.859Z,7.87
2018-12-08T12:42:53.016Z,7.92
2018-12-08T12:45:22.233Z,8.03
2018-12-08T12:47:51.843Z,8.02
2018-12-08T12:50:21.129Z,7.76
2018-12-08T12:52:50.296Z,7.68
2018-12-08T12:55:19.443Z,7.78
2018-12-08T12:57:48.935Z,7.48
2018-12-08T13:00:18.145Z,7.34
2018-12-08T13:02:47.253Z,7.09
2018-12-08T13:05:16.367Z,7.00
2018-12-08T13:07:45.600Z,7.00
2018-12-08T13:10:14.732Z,7.06
2018-12-08T13:12:44.215Z,7.31
2018-12-08T13:15:13.465Z,7.47
2018-12-08T13:17:42.844Z,7.46
2018-12-08T13:20:11.981Z,7.65
2018-12-08T13:22:41.359Z,7.81
2018-12-08T13:25:27.487Z,7.95
2018-12-08T13:27:56.622Z,7.94
2018-12-08T13:30:25.813Z,7.97
2018-12-08T13:32:56.361Z,7.76
2018-12-08T13:35:41.375Z,7.44
2018-12-08T13:38:10.763Z,7.32
2018-12-08T13:40:39.956Z,7.44
2018-12-08T13:43:09.119Z,7.30
2018-12-08T13:45:38.243Z,7.30
2018-12-08T13:48:07.508Z,7.29
2018-12-08T13:50:37.089Z,7.36
2018-12-08T13:53:06.237Z,7.23
2018-12-08T13:55:35.356Z,7.43
2018-12-08T13:58:05.237Z,7.45
2018-12-08T14:00:37.072Z,7.24
2018-12-08T14:03:06.332Z,7.33
2018-12-08T14:05:35.759Z,7.33
2018-12-08T14:08:05.671Z,7.20
2018-12-08T14:10:34.942Z,7.06
2018-12-08T14:13:04.225Z,6.90
2018-12-08T14:15:33.804Z,7.03
2018-12-08T14:18:03.865Z,7.08
2018-12-08T14:20:34.733Z,7.01
2018-12-08T14:23:04.343Z,7.06
2018-12-08T14:25:33.504Z,6.87
2018-12-08T14:28:03.695Z,6.92
2018-12-08T14:30:32.921Z,6.74
2018-12-08T14:33:02.991Z,6.64
2018-12-08T14:35:32.379Z,6.60
2018-12-08T14:38:02.141Z,6.48
2018-12-08T14:40:31.378Z,6.37
2018-12-08T14:43:00.528Z,6.39
2018-12-08T14:45:29.812Z,6.34
2018-12-08T14:47:58.972Z,6.32
2018-12-08T14:50:28.147Z,6.36
2018-12-08T14:52:57.276Z,6.35
2018-12-08T14:55:26.553Z,6.33
2018-12-08T14:57:55.896Z,6.30
2018-12-08T15:00:25.250Z,6.32
2018-12-08T15:02:54.841Z,6.24
2018-12-08T15:05:24.119Z,6.22
2018-12-08T15:07:53.321Z,6.23
2018-12-08T15:10:22.461Z,6.28
2018-12-08T15:12:51.676Z,6.22
2018-12-08T15:15:21.212Z,6.29
2018-12-08T15:17:50.824Z,6.31
2018-12-08T15:20:20.024Z,6.32
2018-12-08T15:22:49.269Z,6.34
2018-12-08T15:25:18.373Z,6.39
2018-12-08T15:27:47.532Z,6.45
2018-12-08T15:30:17.289Z,6.40
2018-12-08T15:32:46.509Z,6.42
2018-12-08T15:35:15.737Z,6.36
2018-12-08T15:37:45.176Z,6.35
2018-12-08T15:40:14.553Z,6.37
2018-12-08T15:42:46.244Z,6.40
2018-12-08T15:45:15.530Z,6.46
2018-12-08T15:47:44.961Z,6.47
2018-12-08T15:50:14.188Z,6.47
2018-12-08T15:52:43.611Z,6.55
2018-12-08T15:55:13.168Z,6.48
2018-12-08T15:57:42.393Z,6.52
2018-12-08T16:00:13.929Z,6.49
2018-12-08T16:02:43.869Z,6.52
2018-12-08T16:05:13.159Z,6.58
2018-12-08T16:07:42.459Z,6.60
2018-12-08T16:10:11.832Z,6.66
2018-12-08T16:12:41.094Z,6.65
2018-12-08T16:15:10.749Z,6.71
2018-12-08T16:17:39.900Z,6.68
2018-12-08T16:20:12.861Z,6.73
2018-12-08T16:22:42.236Z,6.70
2018-12-08T16:25:11.385Z,6.74
2018-12-08T16:27:40.591Z,6.78
2018-12-08T16:30:11.352Z,6.82
2018-12-08T16:32:40.731Z,6.83
2018-12-08T16:35:11.055Z,6.91
2018-12-08T16:37:40.941Z,6.89
2018-12-08T16:40:10.741Z,6.88
2018-12-08T16:42:39.996Z,6.98
2018-12-08T16:45:09.986Z,6.99
2018-12-08T16:47:39.778Z,6.97
2018-12-08T16:50:10.585Z,6.93
2018-12-08T16:52:42.255Z,6.87
2018-12-08T16:55:11.872Z,6.86
2018-12-08T16:57:41.371Z,6.83
2018-12-08T17:00:11.910Z,6.82
2018-12-08T17:02:41.115Z,6.84
2018-12-08T17:05:10.788Z,6.81
2018-12-08T17:07:40.452Z,6.88
2018-12-08T17:10:09.912Z,6.91
2018-12-08T17:12:39.056Z,6.84
2018-12-08T17:15:08.728Z,6.87
2018-12-08T17:17:37.974Z,6.87
2018-12-08T17:20:11.265Z,6.88
2018-12-08T17:22:41.804Z,6.87
2018-12-08T17:25:10.953Z,6.85
2018-12-08T17:27:40.184Z,6.88
2018-12-08T17:30:10.060Z,6.83
2018-12-08T17:32:40.007Z,6.87
2018-12-08T17:35:09.764Z,6.83
2018-12-08T17:37:39.047Z,6.86
2018-12-08T17:40:09.372Z,6.89
2018-12-08T17:42:38.569Z,6.87
2018-12-08T17:45:07.784Z,6.87
2018-12-08T17:47:37.099Z,6.89
2018-12-08T17:50:08.444Z,6.87
2018-12-08T17:52:38.204Z,6.92
2018-12-08T17:55:07.512Z,6.96
2018-12-08T17:57:36.619Z,6.89
2018-12-08T18:00:06.305Z,6.94
2018-12-08T18:02:35.641Z,6.98
2018-12-08T18:05:05.499Z,6.94
2018-12-08T18:07:35.115Z,6.97
2018-12-08T18:10:05.616Z,6.98
2018-12-08T18:12:34.838Z,6.93
2018-12-08T18:15:04.307Z,6.97
2018-12-08T18:17:33.467Z,6.86
2018-12-08T18:20:03.359Z,6.72
2018-12-08T18:22:32.692Z,6.63
2018-12-08T18:25:02.397Z,6.61
2018-12-08T18:27:31.624Z,6.62
2018-12-08T18:30:02.222Z,6.57
2018-12-08T18:32:31.755Z,6.57
2018-12-08T18:35:00.981Z,6.61
2018-12-08T18:37:30.264Z,6.44
2018-12-08T18:39:59.464Z,6.56
2018-12-08T18:42:28.584Z,6.60
2018-12-08T18:44:57.696Z,6.68
2018-12-08T18:47:27.634Z,6.65
2018-12-08T18:49:56.724Z,6.72
2018-12-08T18:52:26.107Z,6.75
2018-12-08T18:54:55.314Z,6.67
2018-12-08T18:57:24.428Z,6.63
2018-12-08T18:59:53.561Z,6.53
2018-12-08T19:02:22.688Z,6.52
2018-12-08T19:04:51.807Z,6.45
2018-12-08T19:07:20.921Z,6.35
2018-12-08T19:09:50.125Z,6.32
2018-12-08T19:12:19.405Z,6.48
2018-12-08T19:14:49.360Z,6.45
2018-12-08T19:17:18.544Z,6.44
2018-12-08T19:19:47.736Z,6.49
2018-12-08T19:22:16.991Z,6.59
2018-12-08T19:24:46.527Z,6.57
2018-12-08T19:27:15.704Z,6.49
2018-12-08T19:29:44.856Z,6.57
2018-12-08T19:32:14.045Z,6.49
2018-12-08T19:34:43.742Z,6.46
2018-12-08T19:37:13.508Z,6.62
2018-12-08T19:39:42.641Z,6.73
2018-12-08T19:42:11.772Z,6.84
2018-12-08T19:44:40.900Z,6.94
2018-12-08T19:47:09.991Z,6.92
2018-12-08T19:49:39.215Z,6.95
2018-12-08T19:52:08.395Z,6.98
2018-12-08T19:54:38.027Z,6.96
2018-12-08T19:57:07.240Z,6.94
2018-12-08T19:59:36.376Z,6.87
2018-12-08T20:02:06.172Z,6.88
2018-12-08T20:04:35.300Z,6.76
2018-12-08T20:07:04.500Z,6.66
2018-12-08T20:09:34.151Z,6.57
2018-12-08T20:12:03.365Z,6.44
2018-12-08T20:14:32.592Z,6.55
2018-12-08T20:17:03.211Z,6.55
2018-12-08T20:19:32.924Z,6.48
2018-12-08T20:22:02.103Z,6.57
2018-12-08T20:24:31.308Z,6.63
2018-12-08T20:27:00.574Z,6.69
2018-12-08T20:29:31.082Z,6.65
2018-12-08T20:32:00.344Z,6.66
2018-12-08T20:34:32.908Z,6.74
2018-12-08T20:37:02.559Z,6.77
2018-12-08T20:39:32.074Z,6.71
2018-12-08T20:42:01.441Z,6.70
2018-12-08T20:44:30.708Z,6.62
2018-12-08T20:47:00.284Z,6.68
2018-12-08T20:49:34.520Z,6.69
2018-12-08T20:52:03.653Z,6.67
2018-12-08T20:54:32.786Z,6.70
2018-12-08T20:57:02.085Z,6.66
2018-12-08T20:59:31.469Z,6.76
2018-12-08T21:02:00.753Z,6.73
2018-12-08T21:04:29.916Z,6.71
2018-12-08T21:06:59.592Z,6.68
2018-12-08T21:09:29.002Z,6.63
2018-12-08T21:11:58.127Z,6.60
2018-12-08T21:14:27.268Z,6.60
2018-12-08T21:16:57.344Z,6.61
2018-12-08T21:19:27.389Z,6.58
2018-12-08T21:21:56.670Z,6.72
2018-12-08T21:24:25.892Z,6.82
2018-12-08T21:26:55.164Z,6.77
2018-12-08T21:29:24.707Z,6.87
2018-12-08T21:31:54.333Z,6.86
2018-12-08T21:34:24.788Z,6.96
2018-12-08T21:36:53.935Z,7.01
2018-12-08T21:39:23.053Z,7.09
2018-12-08T21:41:52.703Z,7.11
2018-12-08T21:44:21.936Z,7.26
2018-12-08T21:46:54.108Z,7.30
2018-12-08T21:49:23.360Z,7.36
2018-12-08T21:51:52.499Z,7.42
2018-12-08T21:54:21.806Z,7.39
2018-12-08T21:56:51.101Z,7.33
2018-12-08T21:59:20.339Z,7.35
2018-12-08T22:01:49.740Z,7.28
2018-12-08T22:04:19.012Z,7.12
2018-12-08T22:06:48.210Z,7.09
2018-12-08T22:09:17.323Z,7.00
2018-12-08T22:11:46.465Z,6.97
2018-12-08T22:14:15.987Z,6.93
2018-12-08T22:16:46.610Z,6.92
2018-12-08T22:19:15.771Z,6.76
2018-12-08T22:21:44.952Z,6.55
2018-12-08T22:24:14.102Z,6.49
2018-12-08T22:26:43.308Z,6.48
2018-12-08T22:29:13.101Z,6.49
2018-12-08T22:31:43.873Z,6.56
2018-12-08T22:34:13.625Z,6.67
2018-12-08T22:36:42.860Z,6.73
2018-12-08T22:39:11.973Z,6.86
2018-12-08T22:41:41.200Z,6.96
2018-12-08T22:44:10.886Z,7.09
2018-12-08T22:46:40.168Z,7.14
2018-12-08T22:49:10.821Z,7.32
2018-12-08T22:51:39.968Z,7.42
2018-12-08T22:54:10.507Z,7.37
2018-12-08T22:56:39.639Z,7.49
2018-12-08T22:59:08.855Z,7.54
2018-12-08T23:01:38.024Z,7.53
2018-12-08T23:04:08.004Z,7.62
2018-12-08T23:06:37.224Z,7.69
2018-12-08T23:09:07.656Z,7.80
2018-12-08T23:11:36.807Z,7.83
2018-12-08T23:14:06.022Z,7.84
2018-12-08T23:16:36.220Z,7.91
2018-12-08T23:19:05.991Z,7.91
2018-12-08T23:21:35.516Z,7.86
2018-12-08T23:24:04.812Z,7.86
2018-12-08T23:26:34.311Z,7.91
2018-12-08T23:29:03.745Z,8.03
2018-12-08T23:31:33.048Z,8.20
2018-12-08T23:34:02.243Z,8.20
2018-12-08T23:36:31.608Z,8.14
2018-12-08T23:39:01.155Z,8.06
2018-12-08T23:41:30.753Z,7.90
2018-12-08T23:44:04.088Z,7.78
2018-12-08T23:46:33.752Z,7.76
2018-12-08T23:49:10.934Z,7.75
2018-12-08T23:51:34.496Z,7.74
2018-12-08T23:54:03.672Z,7.78
2018-12-08T23:56:33.348Z,7.75
2018-12-08T23:59:02.595Z,7.64
